Wan Hai 282 — 9VJM6 — position and weather

sailwx.info

Track history (hours):
 
Tides and Currents Weather Stations Pressure Air Temp Water Temp Dewpoint Dewpoint Depression Visibility Wind Speed Wind Dir Waves Ship Positions

Wan Hai 282

Last reported at 2018-May-20 23:04 UTC. Time now 2018-May-22 21:21 UTC.
Position N 01°20' E 104°23'.

Length 182 m; draft 9.4 m.

Type: Ship. MMSI: 565647000.

Date/timePositionNaut miles runAvg speedWind from/ knotsBaromVisibWave heightAir tempDewpointWater temp
2018-May-20 23:04N 01°20' E 104°23'119.1
2018-May-20 23:00N 01°20' E 104°23'917.4
2018-May-20 22:30N 01°16' E 104°14'714.0
2018-May-20 22:00N 01°15' E 104°08'713.5
2018-May-20 21:30N 01°14' E 104°01'612.9
2018-May-20 21:00N 01°12' E 103°55'714.2
2018-May-20 20:30N 01°10' E 103°48'816.1
2018-May-20 20:01N 01°04' E 103°42'714.7
2018-May-20 19:31N 01°05' E 103°35'815.7
2018-May-20 19:00N 01°09' E 103°28'916.8
2018-May-20 18:29N 01°15' E 103°21'816.5
2018-May-20 18:01N 01°20' E 103°15'  
2018-May-18 01:27N 01°15' E 103°24'915.7
2018-May-18 00:51N 01°13' E 103°33'515.6
2018-May-18 00:31N 01°11' E 103°39'713.6
2018-May-17 23:59N 01°09' E 103°45'612.6
2018-May-17 23:30N 01°11' E 103°51'713.4
2018-May-17 23:00N 01°14' E 103°57'713.7
2018-May-17 22:30N 01°16' E 104°04'713.9
2018-May-17 21:59N 01°17' E 104°11'612.7
2018-May-17 21:30N 01°18' E 104°17'712.5
2018-May-17 20:57N 01°21' E 104°23'612.1
2018-May-17 20:27N 01°25' E 104°27'1013.5
2018-May-17 19:43N 01°32' E 104°35'  
2018-May-11 22:30N 22°48' E 119°54'1914.1
2018-May-11 21:11N 23°07' E 119°55'5513.9
2018-May-11 17:13N 24°02' E 120°05'415.6
2018-May-11 16:57N 24°05' E 120°08'815.9
2018-May-11 16:28N 24°10' E 120°14'715.4
2018-May-11 16:00N 24°15' E 120°19'714.5
2018-May-11 15:30N 24°18' E 120°27'4 0.5
2018-May-11 07:09N 24°16' E 120°31'  
Track history (hours):
 
Tides and Currents Weather Stations Pressure Air Temp Water Temp Dewpoint Dewpoint Depression Visibility Wind Speed Wind Dir Waves Ship Positions

Wan Hai 282

Last reported at 2018-May-20 23:04 UTC. Time now 2018-May-22 21:21 UTC.
Position N 01°20' E 104°23'.

Length 182 m; draft 9.4 m.

Type: Ship. MMSI: 565647000.

Date/timePositionNaut miles runAvg speedWind from/ knotsBaromVisibWave heightAir tempDewpointWater temp
2018-May-20 23:04N 01°20' E 104°23'119.1
2018-May-20 23:00N 01°20' E 104°23'917.4
2018-May-20 22:30N 01°16' E 104°14'714.0
2018-May-20 22:00N 01°15' E 104°08'713.5
2018-May-20 21:30N 01°14' E 104°01'612.9
2018-May-20 21:00N 01°12' E 103°55'714.2
2018-May-20 20:30N 01°10' E 103°48'816.1
2018-May-20 20:01N 01°04' E 103°42'714.7
2018-May-20 19:31N 01°05' E 103°35'815.7
2018-May-20 19:00N 01°09' E 103°28'916.8
2018-May-20 18:29N 01°15' E 103°21'816.5
2018-May-20 18:01N 01°20' E 103°15'  
2018-May-18 01:27N 01°15' E 103°24'915.7
2018-May-18 00:51N 01°13' E 103°33'515.6
2018-May-18 00:31N 01°11' E 103°39'713.6
2018-May-17 23:59N 01°09' E 103°45'612.6
2018-May-17 23:30N 01°11' E 103°51'713.4
2018-May-17 23:00N 01°14' E 103°57'713.7
2018-May-17 22:30N 01°16' E 104°04'713.9
2018-May-17 21:59N 01°17' E 104°11'612.7
2018-May-17 21:30N 01°18' E 104°17'712.5
2018-May-17 20:57N 01°21' E 104°23'612.1
2018-May-17 20:27N 01°25' E 104°27'1013.5
2018-May-17 19:43N 01°32' E 104°35'  
2018-May-11 22:30N 22°48' E 119°54'1914.1
2018-May-11 21:11N 23°07' E 119°55'5513.9
2018-May-11 17:13N 24°02' E 120°05'415.6
2018-May-11 16:57N 24°05' E 120°08'815.9
2018-May-11 16:28N 24°10' E 120°14'715.4
2018-May-11 16:00N 24°15' E 120°19'714.5
2018-May-11 15:30N 24°18' E 120°27'4 0.5
2018-May-11 07:09N 24°16' E 120°31'  

Dump ship's entire track history